Time;durP1;ratioP1;P1;durP2;ratioP2;P2;SDS_P1;SDS_P2;PMS_P1;PMS_P2;Temp;Humidity;BMP_temperature;BMP_pressure;BME280_temperature;BME280_humidity;BME280_pressure;Samples;Min_cycle;Max_cycle;Signal;HPM_P1;HPM_P2
2022/03/20 00:00:26;;;;;;;0.00;0.00;;;5.60;99.90;;;;;;5046291;28;20044;-77
2022/03/20 00:02:54;;;;;;;0.22;0.22;;;5.70;99.90;;;;;;5031589;28;20045;-76
2022/03/20 00:05:20;;;;;;;0.00;0.00;;;5.60;99.90;;;;;;5061047;28;20119;-76
2022/03/20 00:07:46;;;;;;;0.20;0.20;;;5.60;99.90;;;;;;5040370;28;20484;-76
2022/03/20 00:10:14;;;;;;;0.20;0.10;;;5.60;99.90;;;;;;5031336;28;20129;-77
2022/03/20 00:12:40;;;;;;;0.13;0.13;;;5.60;99.90;;;;;;5031269;28;20045;-77
2022/03/20 00:15:08;;;;;;;0.38;0.25;;;5.60;99.90;;;;;;5048366;28;20057;-76
2022/03/20 00:17:34;;;;;;;0.00;0.00;;;5.50;99.90;;;;;;5017791;28;20565;-77
2022/03/20 00:20:00;;;;;;;0.20;0.20;;;5.50;99.90;;;;;;5052605;28;20155;-77
2022/03/20 00:22:26;;;;;;;0.10;0.10;;;5.50;99.90;;;;;;5043462;28;20041;-77
2022/03/20 00:24:52;;;;;;;1.27;0.45;;;5.50;99.90;;;;;;5032602;28;20092;-76
2022/03/20 00:27:18;;;;;;;0.68;0.30;;;5.40;99.90;;;;;;5041077;28;20047;-76
2022/03/20 00:29:44;;;;;;;0.38;0.38;;;5.40;99.90;;;;;;5045459;28;20478;-76
2022/03/20 00:32:12;;;;;;;0.10;0.10;;;5.40;99.90;;;;;;5042651;28;20171;-77
2022/03/20 00:34:38;;;;;;;0.65;0.52;;;5.40;99.90;;;;;;5029051;28;20044;-77
2022/03/20 00:37:06;;;;;;;0.30;0.20;;;5.40;99.90;;;;;;5043033;28;20049;-77
2022/03/20 00:39:32;;;;;;;1.30;0.47;;;5.40;99.90;;;;;;5031260;28;20052;-77
2022/03/20 00:41:58;;;;;;;0.63;0.40;;;5.30;99.90;;;;;;5025821;28;20151;-77
2022/03/20 00:44:23;;;;;;;0.32;0.25;;;5.30;99.90;;;;;;5045136;28;20145;-77
2022/03/20 00:46:49;;;;;;;0.10;0.10;;;5.30;99.90;;;;;;5051566;28;20128;-77
2022/03/20 00:49:16;;;;;;;0.03;0.03;;;5.20;99.90;;;;;;5029283;28;20056;-77
2022/03/20 00:51:42;;;;;;;0.00;0.00;;;5.20;99.90;;;;;;5042328;28;20037;-76
2022/03/20 00:54:08;;;;;;;0.15;0.15;;;5.20;99.90;;;;;;5047060;28;20415;-76
2022/03/20 00:56:33;;;;;;;0.10;0.10;;;5.20;99.90;;;;;;5040328;28;20037;-76
2022/03/20 00:58:59;;;;;;;0.25;0.20;;;5.20;99.90;;;;;;5043424;28;20029;-76
2022/03/20 01:01:28;;;;;;;0.10;0.10;;;5.20;99.90;;;;;;5042302;28;20498;-77
2022/03/20 01:03:54;;;;;;;0.20;0.10;;;5.10;99.90;;;;;;5059660;28;20252;-77
2022/03/20 01:06:21;;;;;;;0.63;0.30;;;5.10;99.90;;;;;;5048288;28;20161;-76
2022/03/20 01:08:46;;;;;;;0.20;0.20;;;5.10;99.90;;;;;;5029447;28;20045;-76
2022/03/20 01:11:12;;;;;;;1.40;0.57;;;5.00;99.90;;;;;;5014812;28;20044;-77
2022/03/20 01:13:38;;;;;;;0.70;0.30;;;5.00;99.90;;;;;;5043017;28;20527;-77
2022/03/20 01:16:06;;;;;;;0.00;0.00;;;5.00;99.90;;;;;;5037902;28;20057;-76
2022/03/20 01:18:31;;;;;;;0.52;0.52;;;5.00;99.90;;;;;;5045128;28;20494;-77
2022/03/20 01:20:58;;;;;;;0.13;0.10;;;5.00;99.90;;;;;;5033582;28;20100;-76
2022/03/20 01:23:23;;;;;;;0.68;0.50;;;5.00;99.90;;;;;;5029465;28;20402;-77
2022/03/20 01:25:50;;;;;;;1.10;0.50;;;4.90;99.90;;;;;;5037524;28;20041;-76
2022/03/20 01:28:17;;;;;;;0.10;0.10;;;4.90;99.90;;;;;;5039018;28;20541;-76
2022/03/20 01:30:42;;;;;;;0.00;0.00;;;4.90;99.90;;;;;;5034559;28;20037;-77
2022/03/20 01:33:08;;;;;;;0.20;0.20;;;4.90;99.90;;;;;;5031621;28;20114;-77
2022/03/20 01:35:35;;;;;;;0.00;0.00;;;4.90;99.90;;;;;;5027939;28;20115;-76
2022/03/20 01:38:01;;;;;;;0.30;0.30;;;4.80;99.90;;;;;;5042754;28;20038;-77
2022/03/20 01:40:27;;;;;;;0.20;0.20;;;4.80;99.90;;;;;;5029380;28;20041;-77
2022/03/20 01:42:53;;;;;;;1.38;0.52;;;4.80;99.90;;;;;;5032715;28;20048;-76
2022/03/20 01:45:22;;;;;;;1.08;0.50;;;4.70;99.90;;;;;;5045418;28;20037;-77
2022/03/20 01:47:49;;;;;;;0.85;0.60;;;4.70;99.90;;;;;;5041534;28;20537;-77
2022/03/20 01:50:20;;;;;;;0.40;0.20;;;4.70;99.90;;;;;;5040272;28;20033;-77
2022/03/20 01:52:47;;;;;;;0.22;0.22;;;4.70;99.90;;;;;;5039369;28;20644;-77
2022/03/20 01:55:13;;;;;;;0.10;0.10;;;4.70;99.90;;;;;;5041677;28;20106;-77
2022/03/20 01:57:39;;;;;;;0.00;0.00;;;4.60;99.90;;;;;;5049485;28;20047;-77
2022/03/20 02:00:06;;;;;;;0.00;0.00;;;4.60;99.90;;;;;;5029746;28;20044;-77
2022/03/20 02:02:32;;;;;;;0.15;0.15;;;4.60;99.90;;;;;;5037682;28;20041;-77
2022/03/20 02:04:58;;;;;;;0.77;0.30;;;4.60;99.90;;;;;;5049966;28;20038;-77
2022/03/20 02:07:25;;;;;;;0.13;0.13;;;4.60;99.90;;;;;;5040873;28;20044;-77
2022/03/20 02:09:51;;;;;;;0.13;0.13;;;4.60;99.90;;;;;;5042450;28;20044;-77
2022/03/20 02:12:17;;;;;;;0.35;0.30;;;4.50;99.90;;;;;;5044394;28;20060;-77
2022/03/20 02:14:43;;;;;;;0.08;0.08;;;4.60;99.90;;;;;;5029817;28;20183;-77
2022/03/20 02:17:12;;;;;;;0.65;0.52;;;4.60;99.90;;;;;;5041431;28;20095;-77
2022/03/20 02:19:39;;;;;;;0.50;0.32;;;4.50;99.90;;;;;;5054177;28;20095;-76
2022/03/20 02:22:05;;;;;;;0.05;0.05;;;4.50;99.90;;;;;;5058627;28;20089;-77
2022/03/20 02:24:48;;;;;;;0.00;0.00;;;4.50;99.90;;;;;;5046368;28;20126;-77
2022/03/20 02:27:18;;;;;;;0.35;0.32;;;4.50;99.90;;;;;;5019048;28;20550;-76
2022/03/20 02:29:49;;;;;;;0.30;0.30;;;4.50;99.90;;;;;;5048068;28;20128;-76
2022/03/20 02:32:18;;;;;;;0.00;0.00;;;4.40;99.90;;;;;;5028113;28;20067;-76
2022/03/20 02:34:47;;;;;;;0.35;0.35;;;4.50;99.90;;;;;;5029437;28;20040;-77
2022/03/20 02:37:14;;;;;;;0.00;0.00;;;4.40;99.90;;;;;;5034852;28;20041;-77
2022/03/20 02:39:40;;;;;;;0.68;0.22;;;4.40;99.90;;;;;;5037290;28;20065;-77
2022/03/20 02:42:07;;;;;;;0.50;0.50;;;4.40;99.90;;;;;;5042610;28;20392;-76
2022/03/20 02:44:55;;;;;;;0.80;0.57;;;4.40;99.90;;;;;;5034467;28;20586;-77
2022/03/20 02:47:26;;;;;;;0.15;0.15;;;4.40;99.90;;;;;;5041094;28;20051;-77
2022/03/20 02:49:57;;;;;;;0.00;0.00;;;4.30;99.90;;;;;;5028825;28;20125;-76
2022/03/20 02:52:29;;;;;;;0.65;0.65;;;4.30;99.90;;;;;;5043475;28;20037;-77
2022/03/20 02:55:00;;;;;;;1.17;0.20;;;4.30;99.90;;;;;;5045160;28;20125;-77
2022/03/20 02:57:30;;;;;;;0.30;0.30;;;4.20;99.90;;;;;;5029675;28;20056;-77
2022/03/20 03:00:03;;;;;;;3.67;0.63;;;4.20;99.90;;;;;;5026707;28;20507;-77
2022/03/20 03:02:30;;;;;;;0.25;0.25;;;4.20;99.90;;;;;;5028376;28;20697;-77
2022/03/20 03:04:57;;;;;;;0.20;0.20;;;4.20;99.90;;;;;;5039069;28;20037;-77
2022/03/20 03:07:23;;;;;;;0.60;0.38;;;4.20;99.90;;;;;;5022437;28;20521;-77
2022/03/20 03:12:32;;;;;;;0.20;0.20;;;4.10;99.90;;;;;;5039913;28;20045;-77
2022/03/20 03:17:42;;;;;;;0.35;0.28;;;4.10;99.90;;;;;;5027493;28;20049;-76
2022/03/20 03:20:08;;;;;;;1.23;0.40;;;4.10;99.90;;;;;;5027498;28;20036;-77
2022/03/20 03:22:34;;;;;;;1.27;0.57;;;4.00;99.90;;;;;;5027025;28;20086;-77
2022/03/20 03:25:00;;;;;;;0.10;0.10;;;4.00;99.90;;;;;;5044542;28;20060;-77
2022/03/20 03:27:25;;;;;;;0.98;0.50;;;4.00;99.90;;;;;;5033512;28;20128;-77
2022/03/20 03:29:51;;;;;;;0.40;0.35;;;4.00;99.90;;;;;;5035833;28;20418;-76
2022/03/20 03:32:17;;;;;;;1.55;0.55;;;4.00;99.90;;;;;;5009955;28;20080;-77
2022/03/20 03:37:26;;;;;;;0.40;0.13;;;3.90;99.90;;;;;;5045529;28;20045;-76
2022/03/20 03:39:52;;;;;;;1.38;0.90;;;3.90;99.90;;;;;;5037346;28;20171;-77
2022/03/20 03:42:19;;;;;;;0.88;0.52;;;3.90;99.90;;;;;;5029670;28;20041;-76
2022/03/20 03:44:45;;;;;;;0.30;0.30;;;3.90;99.90;;;;;;5032269;28;20531;-77
2022/03/20 03:47:11;;;;;;;0.20;0.20;;;3.80;99.90;;;;;;5064901;28;20041;-77
2022/03/20 03:49:37;;;;;;;1.75;0.35;;;3.80;99.90;;;;;;5026354;28;20430;-77
2022/03/20 03:52:03;;;;;;;0.15;0.10;;;3.80;99.90;;;;;;5028662;28;20088;-76
2022/03/20 03:54:29;;;;;;;0.88;0.65;;;3.80;99.90;;;;;;5037441;28;20474;-76
2022/03/20 03:56:55;;;;;;;0.35;0.20;;;3.70;99.90;;;;;;5029213;28;20099;-77
2022/03/20 03:59:20;;;;;;;0.40;0.22;;;3.70;99.90;;;;;;5046996;28;20045;-77
2022/03/20 04:01:46;;;;;;;0.63;0.32;;;3.70;99.90;;;;;;5044724;28;20135;-76
2022/03/20 04:04:12;;;;;;;0.28;0.28;;;3.70;99.90;;;;;;5042524;28;20200;-76
2022/03/20 04:06:37;;;;;;;1.20;0.50;;;3.60;99.90;;;;;;5044388;28;20441;-76
2022/03/20 04:09:04;;;;;;;0.70;0.45;;;3.60;99.90;;;;;;5044958;28;20029;-76
2022/03/20 04:11:30;;;;;;;0.40;0.38;;;3.60;99.90;;;;;;5031083;28;20094;-76
2022/03/20 04:13:56;;;;;;;1.65;0.30;;;3.60;99.90;;;;;;5026053;28;20134;-76
2022/03/20 04:16:22;;;;;;;1.38;0.63;;;3.60;99.90;;;;;;5031506;28;20076;-76
2022/03/20 04:18:47;;;;;;;0.98;0.30;;;3.60;99.90;;;;;;5048437;28;20459;-76
2022/03/20 04:21:13;;;;;;;0.63;0.52;;;3.60;99.90;;;;;;5045818;28;20044;-77
2022/03/20 04:23:51;;;;;;;3.45;0.57;;;3.60;99.90;;;;;;5058957;28;20029;-77
2022/03/20 04:26:21;;;;;;;0.22;0.20;;;3.60;99.90;;;;;;5031559;28;20049;-77
2022/03/20 04:28:48;;;;;;;0.90;0.63;;;3.60;99.90;;;;;;5045673;28;20036;-77
2022/03/20 04:31:17;;;;;;;0.82;0.52;;;3.50;99.90;;;;;;5029659;28;20042;-77
2022/03/20 04:33:45;;;;;;;0.82;0.47;;;3.50;99.90;;;;;;5038484;28;20041;-77
2022/03/20 04:36:11;;;;;;;0.32;0.20;;;3.50;99.90;;;;;;5014850;28;20064;-77
2022/03/20 04:38:37;;;;;;;0.47;0.40;;;3.50;99.90;;;;;;5044091;28;20068;-77
2022/03/20 04:41:03;;;;;;;0.45;0.45;;;3.50;99.90;;;;;;5041051;28;20049;-76
2022/03/20 04:43:29;;;;;;;1.13;0.57;;;3.50;99.90;;;;;;5037377;28;20040;-77
2022/03/20 04:45:55;;;;;;;0.43;0.40;;;3.50;99.90;;;;;;5041594;28;20037;-76
2022/03/20 04:59:17;;;;;;;0.80;0.52;;;3.40;99.90;;;;;;5046758;28;20559;-76
2022/03/20 05:01:43;;;;;;;1.05;0.63;;;3.40;99.90;;;;;;5055757;28;20037;-76
2022/03/20 05:04:09;;;;;;;0.68;0.30;;;3.40;99.90;;;;;;5037564;28;20069;-77
2022/03/20 05:06:34;;;;;;;0.28;0.28;;;3.40;99.90;;;;;;5051769;28;20033;-76
2022/03/20 05:14:29;;;;;;;2.60;0.50;;;3.30;99.90;;;;;;5038845;28;20101;-76
2022/03/20 05:16:54;;;;;;;0.38;0.25;;;3.30;99.90;;;;;;5062098;28;20601;-77
2022/03/20 05:19:20;;;;;;;1.00;0.70;;;3.30;99.90;;;;;;5046164;28;20112;-77
2022/03/20 05:21:47;;;;;;;1.33;0.50;;;3.30;99.90;;;;;;5040949;28;20099;-76
2022/03/20 05:24:13;;;;;;;1.27;0.60;;;3.30;99.90;;;;;;5033207;28;20510;-76
2022/03/20 05:26:41;;;;;;;2.80;0.65;;;3.30;99.90;;;;;;5045902;28;20115;-77
2022/03/20 05:29:07;;;;;;;0.52;0.52;;;3.30;99.90;;;;;;5029281;28;20124;-77
2022/03/20 05:31:33;;;;;;;1.00;0.50;;;3.30;99.90;;;;;;5048444;28;20580;-76
2022/03/20 05:33:59;;;;;;;5.18;0.75;;;3.20;99.90;;;;;;5055734;28;20037;-77
2022/03/20 05:36:29;;;;;;;0.93;0.65;;;3.30;99.90;;;;;;5041308;28;20037;-77
2022/03/20 05:39:01;;;;;;;0.10;0.05;;;3.20;99.90;;;;;;5062439;28;20064;-77
2022/03/20 05:44:12;;;;;;;4.68;0.75;;;3.20;99.90;;;;;;5034743;28;20824;-77
2022/03/20 05:46:38;;;;;;;0.63;0.52;;;3.20;99.90;;;;;;5031967;28;20048;-77
2022/03/20 05:49:05;;;;;;;0.45;0.15;;;3.20;99.90;;;;;;5030181;28;20157;-77
2022/03/20 05:51:31;;;;;;;3.20;0.40;;;3.20;99.90;;;;;;5027701;28;20101;-76
2022/03/20 05:53:57;;;;;;;2.25;0.57;;;3.20;99.90;;;;;;5044667;28;20072;-76
2022/03/20 05:59:07;;;;;;;0.98;0.70;;;3.20;99.90;;;;;;5046167;28;20037;-77
2022/03/20 06:01:33;;;;;;;1.85;0.20;;;3.20;99.90;;;;;;5032307;28;20526;-77
2022/03/20 06:04:00;;;;;;;0.15;0.15;;;3.20;99.90;;;;;;5035812;28;20155;-76
2022/03/20 06:06:26;;;;;;;0.38;0.38;;;3.20;99.90;;;;;;5024335;28;20037;-77
2022/03/20 06:08:52;;;;;;;0.93;0.75;;;3.20;99.90;;;;;;5043976;28;20039;-77
2022/03/20 06:11:17;;;;;;;0.90;0.70;;;3.20;99.80;;;;;;5045433;28;20398;-77
2022/03/20 06:13:45;;;;;;;0.40;0.15;;;3.20;99.80;;;;;;5033209;28;20561;-77
2022/03/20 06:16:12;;;;;;;0.80;0.43;;;3.20;99.80;;;;;;5043953;28;20049;-76
2022/03/20 06:18:39;;;;;;;7.40;1.10;;;3.20;99.70;;;;;;5047417;28;20068;-77
2022/03/20 06:21:06;;;;;;;0.52;0.40;;;3.20;99.80;;;;;;5040663;28;20053;-77
2022/03/20 06:23:32;;;;;;;0.35;0.35;;;3.20;99.80;;;;;;5027357;28;20045;-77
2022/03/20 06:25:58;;;;;;;2.33;0.93;;;3.20;99.30;;;;;;5026243;28;20090;-77
2022/03/20 06:28:23;;;;;;;0.55;0.25;;;3.20;99.20;;;;;;5034793;28;20037;-76
2022/03/20 06:30:49;;;;;;;1.08;0.40;;;3.20;99.40;;;;;;5037396;28;20068;-77
2022/03/20 06:33:15;;;;;;;1.20;0.60;;;3.20;99.50;;;;;;5037584;28;20526;-77
2022/03/20 06:35:41;;;;;;;5.45;0.32;;;3.20;99.20;;;;;;5051859;28;20033;-77
2022/03/20 06:38:07;;;;;;;1.35;0.47;;;3.20;99.00;;;;;;5037456;28;20037;-76
2022/03/20 06:40:33;;;;;;;1.00;0.70;;;3.20;99.20;;;;;;5026977;28;20049;-77
2022/03/20 06:42:59;;;;;;;0.52;0.38;;;3.20;98.90;;;;;;5036459;28;20040;-77
2022/03/20 06:45:24;;;;;;;0.90;0.68;;;3.20;98.60;;;;;;5039709;28;20033;-77
2022/03/20 06:47:50;;;;;;;1.38;0.73;;;3.20;98.10;;;;;;5020325;28;20064;-77
2022/03/20 06:50:16;;;;;;;1.20;0.63;;;3.30;98.80;;;;;;5029611;28;20694;-77
2022/03/20 06:52:43;;;;;;;0.90;0.57;;;3.30;98.60;;;;;;5026427;28;20113;-76
2022/03/20 06:55:12;;;;;;;1.48;1.00;;;3.30;98.60;;;;;;5054495;28;20052;-77
2022/03/20 06:57:41;;;;;;;3.42;0.52;;;3.30;99.00;;;;;;5036108;28;20029;-77
2022/03/20 07:00:08;;;;;;;2.38;0.20;;;3.40;98.70;;;;;;5037823;28;20041;-76
2022/03/20 07:02:34;;;;;;;0.63;0.30;;;3.40;97.90;;;;;;5031462;28;20042;-77
2022/03/20 07:05:00;;;;;;;2.20;1.13;;;3.40;98.10;;;;;;5040637;28;20043;-76
2022/03/20 07:07:26;;;;;;;4.82;1.13;;;3.40;97.60;;;;;;5029940;28;20109;-77
2022/03/20 07:09:52;;;;;;;3.10;0.40;;;3.40;97.50;;;;;;5047346;28;20583;-77
2022/03/20 07:12:19;;;;;;;1.95;0.88;;;3.40;97.10;;;;;;5035627;28;20116;-77
2022/03/20 07:14:45;;;;;;;1.02;0.60;;;3.50;97.50;;;;;;5060565;28;20053;-77
2022/03/20 07:17:16;;;;;;;0.60;0.60;;;3.50;97.20;;;;;;5030144;28;20045;-77
2022/03/20 07:19:43;;;;;;;2.60;0.85;;;3.50;96.70;;;;;;5049029;28;20041;-76
2022/03/20 07:22:10;;;;;;;1.88;0.65;;;3.60;96.60;;;;;;5039908;28;20196;-77
2022/03/20 07:24:38;;;;;;;0.68;0.38;;;3.60;96.00;;;;;;5031264;28;20076;-77
2022/03/20 07:29:49;;;;;;;1.55;0.80;;;3.60;96.00;;;;;;5047788;28;20052;-78
2022/03/20 07:32:15;;;;;;;0.98;0.70;;;3.70;95.80;;;;;;5030574;28;20094;-76
2022/03/20 07:34:44;;;;;;;1.88;0.73;;;3.70;95.20;;;;;;5041536;28;20032;-76
2022/03/20 07:37:09;;;;;;;0.65;0.47;;;3.80;95.40;;;;;;5030244;28;20487;-76
2022/03/20 07:39:35;;;;;;;1.88;1.05;;;3.80;95.50;;;;;;5043243;28;20040;-76
2022/03/20 07:42:01;;;;;;;1.95;0.32;;;3.80;95.70;;;;;;5064743;28;20037;-75
2022/03/20 07:44:31;;;;;;;0.45;0.45;;;3.90;95.80;;;;;;5042004;28;20056;-75
2022/03/20 07:46:57;;;;;;;0.90;0.57;;;3.90;94.60;;;;;;5049342;28;20045;-75
2022/03/20 07:49:23;;;;;;;0.45;0.40;;;4.00;93.60;;;;;;5040852;28;20048;-75
2022/03/20 07:51:48;;;;;;;0.25;0.25;;;4.00;94.10;;;;;;5030319;28;20045;-75
2022/03/20 07:54:14;;;;;;;2.97;1.25;;;4.00;93.80;;;;;;5045436;28;20132;-75
2022/03/20 07:56:41;;;;;;;0.75;0.65;;;4.10;93.20;;;;;;5060571;28;20047;-75
2022/03/20 07:59:07;;;;;;;0.75;0.45;;;4.10;93.20;;;;;;5028091;28;20044;-75
2022/03/20 08:01:36;;;;;;;1.40;0.38;;;4.10;93.10;;;;;;5059149;28;20399;-75
2022/03/20 08:04:03;;;;;;;0.77;0.43;;;4.20;92.60;;;;;;5027616;28;20384;-76
2022/03/20 08:06:29;;;;;;;0.73;0.35;;;4.20;92.30;;;;;;5031673;28;20068;-75
2022/03/20 08:08:59;;;;;;;0.82;0.28;;;4.20;91.70;;;;;;5053198;28;20040;-75
2022/03/20 08:11:28;;;;;;;0.25;0.25;;;4.30;92.40;;;;;;5043755;28;20103;-75
2022/03/20 08:13:54;;;;;;;0.45;0.40;;;4.40;91.70;;;;;;5023473;28;20042;-76
2022/03/20 08:16:22;;;;;;;0.63;0.50;;;4.40;90.80;;;;;;5036733;28;20544;-76
2022/03/20 08:18:48;;;;;;;1.25;0.77;;;4.40;90.10;;;;;;5053294;28;20044;-75
2022/03/20 08:21:15;;;;;;;0.25;0.25;;;4.50;88.60;;;;;;5034126;28;20029;-75
2022/03/20 08:23:41;;;;;;;0.32;0.30;;;4.50;90.10;;;;;;5040562;28;20037;-75
2022/03/20 08:26:08;;;;;;;0.63;0.45;;;4.50;90.40;;;;;;5026112;28;20196;-75
2022/03/20 08:28:39;;;;;;;1.13;0.55;;;4.50;91.10;;;;;;5062804;28;20055;-75
2022/03/20 08:31:08;;;;;;;0.57;0.50;;;4.70;89.10;;;;;;5029433;28;20045;-76
2022/03/20 08:33:35;;;;;;;0.20;0.20;;;4.70;89.30;;;;;;5056654;28;20136;-75
2022/03/20 08:36:02;;;;;;;0.95;0.90;;;4.70;88.70;;;;;;5044784;28;20521;-75
2022/03/20 08:38:28;;;;;;;1.73;0.82;;;4.80;88.90;;;;;;5042527;28;20132;-75
2022/03/20 08:40:54;;;;;;;1.10;1.00;;;4.80;87.80;;;;;;5040074;28;20487;-75
2022/03/20 08:43:21;;;;;;;0.95;0.77;;;4.90;88.40;;;;;;5043548;28;21369;-76
2022/03/20 08:45:47;;;;;;;0.47;0.45;;;4.90;87.80;;;;;;5025280;28;21454;-76
2022/03/20 08:48:12;;;;;;;0.38;0.38;;;5.00;87.50;;;;;;5042340;28;20037;-76
2022/03/20 08:50:38;;;;;;;0.47;0.45;;;5.00;88.40;;;;;;5041732;28;20068;-75
2022/03/20 08:53:04;;;;;;;0.70;0.60;;;5.00;85.90;;;;;;5057874;28;20061;-75
2022/03/20 08:55:33;;;;;;;1.00;0.52;;;5.10;82.90;;;;;;5041781;28;20033;-75
2022/03/20 08:57:59;;;;;;;0.98;0.43;;;5.10;87.60;;;;;;5057853;28;20037;-75
2022/03/20 09:00:26;;;;;;;0.10;0.10;;;5.20;87.30;;;;;;5042830;28;20051;-76
2022/03/20 09:02:53;;;;;;;1.05;0.50;;;5.20;85.40;;;;;;5020066;28;20052;-75
2022/03/20 09:05:20;;;;;;;0.70;0.45;;;5.30;77.50;;;;;;5039719;28;20063;-75
2022/03/20 09:07:47;;;;;;;0.88;0.57;;;5.30;83.90;;;;;;5039339;28;20382;-75
2022/03/20 09:10:14;;;;;;;0.20;0.20;;;5.40;84.40;;;;;;5024631;28;20033;-75
2022/03/20 09:12:40;;;;;;;1.70;1.23;;;5.40;84.00;;;;;;5040133;28;20375;-76
2022/03/20 09:15:12;;;;;;;1.05;1.05;;;5.50;82.30;;;;;;5039048;28;20053;-76
2022/03/20 09:20:22;;;;;;;1.40;0.77;;;5.60;80.20;;;;;;5038326;28;20139;-75
2022/03/20 09:22:49;;;;;;;0.73;0.73;;;5.70;80.70;;;;;;5023585;28;20043;-75
2022/03/20 09:25:14;;;;;;;1.10;0.80;;;5.70;78.70;;;;;;5040278;28;20399;-75
2022/03/20 09:27:40;;;;;;;0.28;0.28;;;5.80;80.70;;;;;;5040677;28;20037;-76
2022/03/20 09:30:06;;;;;;;1.25;0.45;;;5.80;78.30;;;;;;5040211;28;20720;-76
2022/03/20 09:32:32;;;;;;;1.65;0.82;;;5.80;80.70;;;;;;5035121;28;20044;-76
2022/03/20 09:34:58;;;;;;;3.45;0.75;;;5.90;78.00;;;;;;5057197;28;20055;-76
2022/03/20 09:37:24;;;;;;;1.30;0.73;;;6.00;79.20;;;;;;5054001;28;20044;-75
2022/03/20 09:39:49;;;;;;;0.85;0.43;;;6.00;72.90;;;;;;5041886;28;20074;-76
2022/03/20 09:42:18;;;;;;;0.70;0.57;;;6.10;78.10;;;;;;5056827;28;20037;-76
2022/03/20 09:44:45;;;;;;;0.00;0.00;;;6.10;76.40;;;;;;5036907;28;20778;-76
2022/03/20 09:47:17;;;;;;;2.03;1.35;;;6.10;78.30;;;;;;5028565;28;20398;-76
2022/03/20 09:49:44;;;;;;;2.17;0.70;;;6.20;80.10;;;;;;5016003;28;20036;-76
2022/03/20 09:52:10;;;;;;;3.08;0.45;;;6.20;77.20;;;;;;5031937;28;20046;-76
2022/03/20 09:54:35;;;;;;;0.68;0.30;;;6.30;75.20;;;;;;5031962;28;20047;-75
2022/03/20 09:57:04;;;;;;;0.47;0.30;;;6.30;75.00;;;;;;5034519;28;20106;-76
2022/03/20 09:59:30;;;;;;;0.82;0.73;;;6.40;76.70;;;;;;5022104;28;20039;-75
2022/03/20 10:02:02;;;;;;;0.70;0.38;;;6.40;74.60;;;;;;5053084;28;20049;-75
2022/03/20 10:04:28;;;;;;;1.83;0.88;;;6.40;73.80;;;;;;5038872;28;20048;-76
2022/03/20 10:06:53;;;;;;;2.00;0.90;;;6.50;74.00;;;;;;5037229;28;20045;-75
2022/03/20 10:09:19;;;;;;;0.38;0.15;;;6.50;70.40;;;;;;5059388;28;20652;-75
2022/03/20 10:11:57;;;;;;;1.67;0.90;;;6.60;73.20;;;;;;5053262;28;20071;-75
2022/03/20 10:14:24;;;;;;;1.35;0.73;;;6.60;75.70;;;;;;5037163;28;20539;-75
2022/03/20 10:16:54;;;;;;;0.55;0.55;;;6.70;74.70;;;;;;5015718;28;20287;-76
2022/03/20 10:19:23;;;;;;;2.65;0.63;;;6.70;74.60;;;;;;5033446;28;20075;-76
2022/03/20 10:21:54;;;;;;;1.30;1.02;;;6.70;73.60;;;;;;5037309;28;20534;-76
2022/03/20 10:24:22;;;;;;;1.25;0.43;;;6.80;72.80;;;;;;5031808;28;20053;-75
2022/03/20 10:27:02;;;;;;;1.13;0.60;;;6.80;72.90;;;;;;5049913;28;20060;-75
2022/03/20 10:29:29;;;;;;;1.02;0.70;;;6.80;73.80;;;;;;5042541;28;20049;-75
2022/03/20 10:32:02;;;;;;;0.55;0.45;;;6.90;71.90;;;;;;5035821;28;20052;-75
2022/03/20 10:34:27;;;;;;;2.17;0.68;;;6.90;72.50;;;;;;5038386;28;20076;-75
2022/03/20 10:36:53;;;;;;;4.90;0.93;;;7.00;72.60;;;;;;5041957;28;20048;-75
2022/03/20 10:39:27;;;;;;;1.85;1.05;;;7.00;73.10;;;;;;5031286;28;20116;-74
2022/03/20 10:41:54;;;;;;;1.60;0.73;;;7.10;73.00;;;;;;5035030;28;20080;-75
2022/03/20 10:44:24;;;;;;;0.77;0.77;;;7.10;70.80;;;;;;5034226;28;20041;-76
2022/03/20 10:47:09;;;;;;;1.38;0.60;;;7.10;71.70;;;;;;5033460;28;20048;-76
2022/03/20 10:49:35;;;;;;;1.50;0.95;;;7.20;70.40;;;;;;5036041;28;20522;-76
2022/03/20 10:52:07;;;;;;;0.85;0.77;;;7.20;68.60;;;;;;5036724;28;20143;-76
2022/03/20 10:54:50;;;;;;;1.77;0.93;;;7.30;71.60;;;;;;5040122;28;20522;-76
2022/03/20 10:57:16;;;;;;;0.88;0.80;;;7.30;69.20;;;;;;5029815;28;20057;-75
2022/03/20 10:59:43;;;;;;;2.08;0.93;;;7.30;71.40;;;;;;5037446;28;20162;-75
2022/03/20 11:02:23;;;;;;;3.88;1.42;;;7.40;70.70;;;;;;5038709;28;20039;-76
2022/03/20 11:04:49;;;;;;;1.30;0.68;;;7.50;71.60;;;;;;5038278;28;20033;-76
2022/03/20 11:07:19;;;;;;;1.50;1.10;;;7.50;71.40;;;;;;5010478;28;20044;-76
2022/03/20 11:09:50;;;;;;;0.98;0.77;;;7.60;70.30;;;;;;5037665;28;20113;-76
2022/03/20 11:12:22;;;;;;;2.25;1.80;;;7.60;67.90;;;;;;5057982;28;20086;-76
2022/03/20 11:14:48;;;;;;;1.05;0.65;;;7.70;70.80;;;;;;5038433;28;20053;-76
2022/03/20 11:17:17;;;;;;;2.10;1.27;;;7.70;68.10;;;;;;5052063;28;20071;-76
2022/03/20 11:19:49;;;;;;;1.50;0.82;;;7.80;68.50;;;;;;5039732;28;20450;-76
2022/03/20 11:22:18;;;;;;;1.70;0.88;;;7.80;67.80;;;;;;5033898;28;20124;-76
2022/03/20 11:24:55;;;;;;;1.92;0.80;;;7.90;67.50;;;;;;5057255;28;20052;-76
2022/03/20 11:27:28;;;;;;;1.60;1.10;;;7.90;65.30;;;;;;5038567;28;20033;-76
2022/03/20 11:30:01;;;;;;;4.15;0.75;;;8.00;67.40;;;;;;5032840;28;20068;-76
2022/03/20 11:32:28;;;;;;;2.28;1.08;;;8.00;67.80;;;;;;5057042;28;20091;-76
2022/03/20 11:34:54;;;;;;;1.55;1.25;;;8.00;68.20;;;;;;5035323;28;20041;-76
2022/03/20 11:37:20;;;;;;;2.47;1.42;;;8.10;68.00;;;;;;5038312;28;20033;-76
2022/03/20 11:40:08;;;;;;;0.82;0.70;;;8.10;68.60;;;;;;5056621;28;20563;-76
2022/03/20 11:42:34;;;;;;;3.63;0.90;;;8.10;68.20;;;;;;5039781;28;20029;-77
2022/03/20 11:45:00;;;;;;;2.90;1.10;;;8.20;66.60;;;;;;5028145;28;21615;-77
2022/03/20 11:47:30;;;;;;;3.45;1.30;;;8.30;66.70;;;;;;5035190;28;20040;-76
2022/03/20 11:50:13;;;;;;;2.60;0.75;;;8.30;66.30;;;;;;5020484;28;20045;-76
2022/03/20 11:53:02;;;;;;;2.47;0.80;;;8.30;66.50;;;;;;5036797;28;20090;-77
2022/03/20 11:55:35;;;;;;;7.65;1.63;;;8.40;66.00;;;;;;5033743;28;20379;-77
2022/03/20 11:58:04;;;;;;;3.42;2.15;;;8.40;64.20;;;;;;5053582;28;20044;-76
2022/03/20 12:00:33;;;;;;;1.20;0.50;;;8.40;66.70;;;;;;5038958;28;20041;-76
2022/03/20 12:03:14;;;;;;;1.25;0.93;;;8.40;67.70;;;;;;5043687;28;20033;-75
2022/03/20 12:05:54;;;;;;;1.90;0.90;;;8.50;67.60;;;;;;5048150;28;20151;-76
2022/03/20 12:08:59;;;;;;;6.63;2.28;;;8.50;68.30;;;;;;5033228;28;20048;-76
2022/03/20 12:11:56;;;;;;;2.00;1.63;;;8.50;64.20;;;;;;5038513;28;20277;-75
2022/03/20 12:14:25;;;;;;;1.90;1.02;;;8.50;65.40;;;;;;5051535;28;20037;-76
2022/03/20 12:16:51;;;;;;;1.83;0.73;;;8.50;67.00;;;;;;5035641;28;20424;-75
2022/03/20 12:19:22;;;;;;;4.85;1.88;;;8.60;68.40;;;;;;5059206;28;20042;-75
2022/03/20 12:22:01;;;;;;;0.47;0.25;;;8.60;65.80;;;;;;5031013;28;20065;-75
2022/03/20 12:24:36;;;;;;;2.35;1.30;;;8.70;64.20;;;;;;5032575;28;20040;-76
2022/03/20 12:29:52;;;;;;;2.38;1.20;;;8.80;65.40;;;;;;5052811;28;20127;-76
2022/03/20 12:32:22;;;;;;;2.15;1.10;;;8.90;66.70;;;;;;5053465;28;20042;-76
2022/03/20 12:35:02;;;;;;;2.20;1.00;;;8.90;66.00;;;;;;5040920;28;20115;-77
2022/03/20 12:37:28;;;;;;;3.28;1.33;;;8.90;64.90;;;;;;5053910;28;20100;-76
2022/03/20 12:39:55;;;;;;;3.45;0.90;;;8.90;67.30;;;;;;5036935;28;20431;-76
2022/03/20 12:42:22;;;;;;;1.23;0.93;;;8.90;66.10;;;;;;5037357;28;20037;-77
2022/03/20 12:44:52;;;;;;;1.85;1.15;;;8.90;67.80;;;;;;5035904;28;20433;-77
2022/03/20 12:47:23;;;;;;;1.45;0.90;;;8.90;69.10;;;;;;5056003;28;20090;-76
2022/03/20 12:49:55;;;;;;;3.60;1.85;;;9.00;69.20;;;;;;5054565;28;20521;-75
2022/03/20 12:52:23;;;;;;;1.73;0.82;;;9.00;68.90;;;;;;5039534;28;20106;-75
2022/03/20 12:54:57;;;;;;;1.25;0.80;;;9.10;67.90;;;;;;5054911;28;20042;-75
2022/03/20 12:57:47;;;;;;;3.08;1.35;;;9.10;66.90;;;;;;5023504;28;20051;-75
2022/03/20 13:00:15;;;;;;;3.75;1.52;;;9.20;65.50;;;;;;5020792;28;20028;-76
2022/03/20 13:02:57;;;;;;;3.35;1.10;;;9.20;67.80;;;;;;5035249;28;20045;-76
2022/03/20 13:05:23;;;;;;;1.73;1.48;;;9.20;66.00;;;;;;5038235;28;20128;-76
2022/03/20 13:07:49;;;;;;;2.25;1.38;;;9.30;66.00;;;;;;5036990;28;20498;-76
2022/03/20 13:10:16;;;;;;;4.60;1.10;;;9.30;65.50;;;;;;5042234;28;20055;-75
2022/03/20 13:13:01;;;;;;;1.63;1.05;;;9.40;64.60;;;;;;5037550;28;20048;-76
2022/03/20 13:15:48;;;;;;;3.88;1.83;;;9.40;66.40;;;;;;5043147;28;20053;-75
2022/03/20 13:18:14;;;;;;;2.95;1.42;;;9.30;66.20;;;;;;5058036;28;20635;-76
2022/03/20 13:20:44;;;;;;;2.83;1.58;;;9.30;67.70;;;;;;5034208;28;20037;-75
2022/03/20 13:23:16;;;;;;;2.90;1.30;;;9.30;67.60;;;;;;5059859;28;20387;-75
2022/03/20 13:25:44;;;;;;;3.30;1.65;;;9.30;68.40;;;;;;5042594;28;20056;-76
2022/03/20 13:28:28;;;;;;;1.95;1.25;;;9.30;67.80;;;;;;5023958;28;20041;-75
2022/03/20 13:30:56;;;;;;;1.58;1.25;;;9.20;66.50;;;;;;5033516;28;20047;-76
2022/03/20 13:33:54;;;;;;;3.45;1.60;;;9.20;67.10;;;;;;5023841;28;20040;-76
2022/03/20 13:36:32;;;;;;;4.50;1.77;;;9.20;66.50;;;;;;5037776;28;20782;-75
2022/03/20 13:38:59;;;;;;;3.60;1.88;;;9.20;66.60;;;;;;5025133;28;20084;-74
2022/03/20 13:41:27;;;;;;;2.10;1.42;;;9.20;67.30;;;;;;5041697;28;20494;-76